Danville, WA (99121)

10:24 AM PDT on July 23, 2014 (GMT -0700)
IBCGRAND2 Elev 1686 ft | 49.03 °N, 118.45 °W | Change Station

Current weather conditions updated 3 minutes ago

Mostly Cloudy
Mostly Cloudy
69.6 °F
Feels Like 69.6 °F
N
2.0
Wind Variable Wind from ENE
Gusts 2.0 mph

Today is forecast to be Much Warmer than yesterday. Thunderstorms.

Today
High -- | Low -- °F
--% Chance of Precip.
Yesterday
High -- | Low -- °F
Precip. -- in
5:15 AM 8:44 PM
Waning Crescent, 9% visible
Pressure 29.93 in
Visibility 10.0 miles
Clouds Clear
Dew Point 58 °F
Humidity 67%
Rainfall 0.00 in
Snow Depth 0 in
UV 6 out of 12
Pollen 5.40 out of 12
Air Quality Not available.
Flu Activity Not available.
METAR KOMK 231653Z AUTO 01009KT 10SM CLR 25/12 A2995 RMK AO2 SLP135 T02500122

More Conditions Fewer Conditions

Pressure 29.93 in
Visibility 10.0 miles
Clouds Clear
Dew Point 58 °F
Humidity 67%
Rainfall 0.00 in
Snow Depth 0 in
UV 6 out of 12
Pollen 5.40 out of 12
Air Quality Not available.
Flu Activity Not available.
METAR KOMK 231653Z AUTO 01009KT 10SM CLR 25/12 A2995 RMK AO2 SLP135 T02500122

More Conditions Fewer Conditions

10-Day Weather Forecast

Almanac

Astronomy

Jul. 23, 2014 Rise Set
Actual Time 5:15 AM PDT 8:44 PM PDT
Civil Twilight 4:36 AM PDT 9:23 PM PDT
Nautical Twilight 3:43 AM PDT 10:15 PM PDT
Astronomical Twilight 2:32 AM PDT 11:25 PM PDT
Moon 2:40 AM PDT 6:15 PM PDT
Length of Visible Light 16h 47m
Length of Day
15h 29m
Tomorrow will be 2m 27s shorter.
Waning Crescent, 9% of the Moon is Illuminated
Today
Waning Crescent
Jul 26
New
Aug 3
First Quarter
Aug 10
Full
Aug 17
Last Quarter

Today's Extremes

State Highs State Lows

Community

WunderPhotos

Upload Photos

1,736,678 photos uploaded!

Nearby

Snow Depth

Station Depth Elevation
Sentinel Butte 0 in 4920 ft
Moses Mountain 1 in 5300 ft
Bunchgrass Meadow 0 in 5000 ft
Harts Pass 0 in 6500 ft
Quartz Peak 1 in 4700 ft

Earthquake Activity

City Distance Mag. Time & Date
No recent earthquake activity has been reported nearby.
Minimum magnitude displayed is 2.5.

Coastal Water Temperatures

Place Temperature
No Stations Reporting

Nearby Weather Stations

Station Location Temp. Dew Point Humidity Wind Precip. Elev Updated Type
Grand Forks 69.6 °F 58 °F 67% ENE  at  2.0 mph 0.00 in / hr 1686 ft 10:20 AM PDT Normal
HADS KETTLE RIVER NEAR FERRY 1S WA, Curlew, WA 60 °F - - North  at  - 0.00 in / hr 1836 ft 9:15 AM PDT MADIS
RAWS OWL MOUNTAIN WA, Laurier, WA 67 °F 54 °F 62% South  at  3 mph 0.00 in / hr 3560 ft 9:56 AM PDT MADIS
Bodie, WA., Bodie, WA 68.0 °F 57 °F 67% WSW  at  1.0 mph 0.00 in / hr 3660 ft 10:24 AM PDT Rapid Fire
MAP RADIO HILL (P021) WA , Republic, WA 62 °F 52 °F 70% SW  at  3 mph 0.00 in / hr 3815 ft 9:00 AM PDT MADIS

Show More Stations Show Fewer Stations